sensor_id;sensor_type;location;lat;lon;timestamp;P1;durP1;ratioP1;P2;durP2;ratioP2
10705;SDS011;5404;42.656;23.336;2023-03-05T00:00:08;72.38;;;28.42;;
10705;SDS011;5404;42.656;23.336;2023-03-05T00:02:38;63.45;;;26.98;;
10705;SDS011;5404;42.656;23.336;2023-03-05T00:05:03;61.53;;;26.40;;
10705;SDS011;5404;42.656;23.336;2023-03-05T00:07:30;63.20;;;26.23;;
10705;SDS011;5404;42.656;23.336;2023-03-05T00:09:59;62.95;;;25.95;;
10705;SDS011;5404;42.656;23.336;2023-03-05T00:12:25;62.25;;;26.45;;
10705;SDS011;5404;42.656;23.336;2023-03-05T00:14:51;64.15;;;27.48;;
10705;SDS011;5404;42.656;23.336;2023-03-05T00:17:16;65.45;;;27.15;;
10705;SDS011;5404;42.656;23.336;2023-03-05T00:19:42;59.25;;;28.33;;
10705;SDS011;5404;42.656;23.336;2023-03-05T00:22:07;64.45;;;28.02;;
10705;SDS011;5404;42.656;23.336;2023-03-05T00:24:33;64.13;;;28.70;;
10705;SDS011;5404;42.656;23.336;2023-03-05T00:26:59;66.68;;;28.63;;
10705;SDS011;5404;42.656;23.336;2023-03-05T00:29:25;71.97;;;30.27;;
10705;SDS011;5404;42.656;23.336;2023-03-05T00:31:52;58.60;;;27.02;;
10705;SDS011;5404;42.656;23.336;2023-03-05T00:34:17;64.15;;;28.75;;
10705;SDS011;5404;42.656;23.336;2023-03-05T00:36:52;60.90;;;26.88;;
10705;SDS011;5404;42.656;23.336;2023-03-05T00:39:19;64.68;;;29.00;;
10705;SDS011;5404;42.656;23.336;2023-03-05T00:41:45;67.50;;;28.75;;
10705;SDS011;5404;42.656;23.336;2023-03-05T00:44:11;60.17;;;29.40;;
10705;SDS011;5404;42.656;23.336;2023-03-05T00:46:38;72.95;;;27.23;;
10705;SDS011;5404;42.656;23.336;2023-03-05T00:49:05;70.28;;;29.98;;
10705;SDS011;5404;42.656;23.336;2023-03-05T00:51:30;63.67;;;29.23;;
10705;SDS011;5404;42.656;23.336;2023-03-05T00:53:56;67.82;;;28.52;;
10705;SDS011;5404;42.656;23.336;2023-03-05T00:56:21;63.85;;;27.92;;
10705;SDS011;5404;42.656;23.336;2023-03-05T00:58:47;58.00;;;26.05;;
10705;SDS011;5404;42.656;23.336;2023-03-05T01:01:13;57.13;;;25.75;;
10705;SDS011;5404;42.656;23.336;2023-03-05T01:03:39;56.55;;;25.25;;
10705;SDS011;5404;42.656;23.336;2023-03-05T01:06:08;59.83;;;24.70;;
10705;SDS011;5404;42.656;23.336;2023-03-05T01:08:36;50.08;;;21.65;;
10705;SDS011;5404;42.656;23.336;2023-03-05T01:11:03;40.45;;;20.80;;
10705;SDS011;5404;42.656;23.336;2023-03-05T01:13:29;49.85;;;22.67;;
10705;SDS011;5404;42.656;23.336;2023-03-05T01:15:55;44.45;;;20.83;;
10705;SDS011;5404;42.656;23.336;2023-03-05T01:18:21;47.47;;;21.70;;
10705;SDS011;5404;42.656;23.336;2023-03-05T01:20:46;47.13;;;19.73;;
10705;SDS011;5404;42.656;23.336;2023-03-05T01:23:12;42.65;;;20.15;;
10705;SDS011;5404;42.656;23.336;2023-03-05T01:25:38;47.58;;;19.25;;
10705;SDS011;5404;42.656;23.336;2023-03-05T01:28:03;47.08;;;20.17;;
10705;SDS011;5404;42.656;23.336;2023-03-05T01:30:29;46.50;;;20.27;;
10705;SDS011;5404;42.656;23.336;2023-03-05T01:32:55;44.17;;;20.75;;
10705;SDS011;5404;42.656;23.336;2023-03-05T01:35:21;46.00;;;19.67;;
10705;SDS011;5404;42.656;23.336;2023-03-05T01:37:48;51.25;;;20.50;;
10705;SDS011;5404;42.656;23.336;2023-03-05T01:40:15;41.53;;;19.83;;
10705;SDS011;5404;42.656;23.336;2023-03-05T01:42:46;40.80;;;19.48;;
10705;SDS011;5404;42.656;23.336;2023-03-05T01:45:14;47.55;;;20.30;;
10705;SDS011;5404;42.656;23.336;2023-03-05T01:50:12;43.80;;;19.50;;
10705;SDS011;5404;42.656;23.336;2023-03-05T01:52:42;46.00;;;21.23;;
10705;SDS011;5404;42.656;23.336;2023-03-05T01:55:22;39.33;;;18.35;;
10705;SDS011;5404;42.656;23.336;2023-03-05T01:57:50;41.80;;;19.30;;
10705;SDS011;5404;42.656;23.336;2023-03-05T02:00:19;42.25;;;19.45;;
10705;SDS011;5404;42.656;23.336;2023-03-05T02:02:49;39.65;;;18.98;;
10705;SDS011;5404;42.656;23.336;2023-03-05T02:05:17;42.70;;;18.10;;
10705;SDS011;5404;42.656;23.336;2023-03-05T02:07:51;43.25;;;19.50;;
10705;SDS011;5404;42.656;23.336;2023-03-05T02:10:19;37.08;;;18.65;;
10705;SDS011;5404;42.656;23.336;2023-03-05T02:12:48;41.38;;;18.40;;
10705;SDS011;5404;42.656;23.336;2023-03-05T02:15:14;40.30;;;19.02;;
10705;SDS011;5404;42.656;23.336;2023-03-05T02:17:41;43.97;;;20.15;;
10705;SDS011;5404;42.656;23.336;2023-03-05T02:20:11;40.50;;;19.80;;
10705;SDS011;5404;42.656;23.336;2023-03-05T02:22:41;41.22;;;18.48;;
10705;SDS011;5404;42.656;23.336;2023-03-05T02:25:25;47.60;;;19.92;;
10705;SDS011;5404;42.656;23.336;2023-03-05T02:30:40;46.20;;;21.15;;
10705;SDS011;5404;42.656;23.336;2023-03-05T02:33:06;39.60;;;17.85;;
10705;SDS011;5404;42.656;23.336;2023-03-05T02:35:31;37.28;;;18.88;;
10705;SDS011;5404;42.656;23.336;2023-03-05T02:37:57;44.60;;;20.02;;
10705;SDS011;5404;42.656;23.336;2023-03-05T02:40:24;39.05;;;18.90;;
10705;SDS011;5404;42.656;23.336;2023-03-05T02:42:50;40.83;;;20.27;;
10705;SDS011;5404;42.656;23.336;2023-03-05T02:45:15;43.30;;;20.55;;
10705;SDS011;5404;42.656;23.336;2023-03-05T02:47:42;46.10;;;21.42;;
10705;SDS011;5404;42.656;23.336;2023-03-05T02:50:08;42.20;;;19.70;;
10705;SDS011;5404;42.656;23.336;2023-03-05T02:52:35;37.60;;;18.00;;
10705;SDS011;5404;42.656;23.336;2023-03-05T02:55:02;44.17;;;19.38;;
10705;SDS011;5404;42.656;23.336;2023-03-05T02:57:29;42.60;;;21.27;;
10705;SDS011;5404;42.656;23.336;2023-03-05T02:59:55;42.38;;;18.67;;
10705;SDS011;5404;42.656;23.336;2023-03-05T03:02:21;51.00;;;21.25;;
10705;SDS011;5404;42.656;23.336;2023-03-05T03:04:48;43.13;;;20.27;;
10705;SDS011;5404;42.656;23.336;2023-03-05T03:07:13;41.90;;;20.73;;
10705;SDS011;5404;42.656;23.336;2023-03-05T03:09:39;46.72;;;22.13;;
10705;SDS011;5404;42.656;23.336;2023-03-05T03:12:06;60.22;;;25.40;;
10705;SDS011;5404;42.656;23.336;2023-03-05T03:14:33;51.33;;;21.98;;
10705;SDS011;5404;42.656;23.336;2023-03-05T03:17:03;53.53;;;22.33;;
10705;SDS011;5404;42.656;23.336;2023-03-05T03:19:31;49.00;;;20.92;;
10705;SDS011;5404;42.656;23.336;2023-03-05T03:21:57;46.10;;;21.58;;
10705;SDS011;5404;42.656;23.336;2023-03-05T03:24:23;57.40;;;21.70;;
10705;SDS011;5404;42.656;23.336;2023-03-05T03:26:48;60.90;;;24.35;;
10705;SDS011;5404;42.656;23.336;2023-03-05T03:29:15;48.03;;;21.30;;
10705;SDS011;5404;42.656;23.336;2023-03-05T03:31:42;56.10;;;23.48;;
10705;SDS011;5404;42.656;23.336;2023-03-05T03:34:09;58.37;;;21.67;;
10705;SDS011;5404;42.656;23.336;2023-03-05T03:36:39;43.20;;;18.38;;
10705;SDS011;5404;42.656;23.336;2023-03-05T03:39:07;59.67;;;19.67;;
10705;SDS011;5404;42.656;23.336;2023-03-05T03:41:35;48.88;;;20.75;;
10705;SDS011;5404;42.656;23.336;2023-03-05T03:44:04;53.95;;;21.48;;
10705;SDS011;5404;42.656;23.336;2023-03-05T03:46:32;70.05;;;27.30;;
10705;SDS011;5404;42.656;23.336;2023-03-05T03:48:59;61.42;;;25.30;;
10705;SDS011;5404;42.656;23.336;2023-03-05T03:51:24;50.38;;;20.75;;
10705;SDS011;5404;42.656;23.336;2023-03-05T03:53:50;53.47;;;22.23;;
10705;SDS011;5404;42.656;23.336;2023-03-05T03:56:15;55.47;;;22.77;;
10705;SDS011;5404;42.656;23.336;2023-03-05T03:58:42;54.78;;;23.85;;
10705;SDS011;5404;42.656;23.336;2023-03-05T04:01:08;55.38;;;23.40;;
10705;SDS011;5404;42.656;23.336;2023-03-05T04:03:34;53.95;;;23.58;;
10705;SDS011;5404;42.656;23.336;2023-03-05T04:05:59;57.17;;;24.67;;
10705;SDS011;5404;42.656;23.336;2023-03-05T04:08:25;54.33;;;23.20;;
10705;SDS011;5404;42.656;23.336;2023-03-05T04:10:50;47.20;;;22.15;;
10705;SDS011;5404;42.656;23.336;2023-03-05T04:13:16;47.95;;;21.67;;
10705;SDS011;5404;42.656;23.336;2023-03-05T04:15:41;53.15;;;24.42;;
10705;SDS011;5404;42.656;23.336;2023-03-05T04:18:08;55.90;;;23.30;;
10705;SDS011;5404;42.656;23.336;2023-03-05T04:20:35;54.90;;;24.00;;
10705;SDS011;5404;42.656;23.336;2023-03-05T04:23:00;54.13;;;24.55;;
10705;SDS011;5404;42.656;23.336;2023-03-05T04:25:26;48.92;;;24.20;;
10705;SDS011;5404;42.656;23.336;2023-03-05T04:27:51;53.08;;;23.70;;
10705;SDS011;5404;42.656;23.336;2023-03-05T04:30:18;55.70;;;26.10;;
10705;SDS011;5404;42.656;23.336;2023-03-05T04:32:43;60.03;;;24.23;;
10705;SDS011;5404;42.656;23.336;2023-03-05T04:35:09;56.42;;;24.05;;
10705;SDS011;5404;42.656;23.336;2023-03-05T04:37:36;61.00;;;23.88;;
10705;SDS011;5404;42.656;23.336;2023-03-05T04:40:01;52.03;;;23.92;;
10705;SDS011;5404;42.656;23.336;2023-03-05T04:42:28;38.67;;;17.52;;
10705;SDS011;5404;42.656;23.336;2023-03-05T04:44:53;55.70;;;22.73;;
10705;SDS011;5404;42.656;23.336;2023-03-05T04:47:19;57.60;;;25.15;;
10705;SDS011;5404;42.656;23.336;2023-03-05T04:49:45;44.67;;;21.20;;
10705;SDS011;5404;42.656;23.336;2023-03-05T04:52:11;58.35;;;22.52;;
10705;SDS011;5404;42.656;23.336;2023-03-05T04:54:38;56.55;;;25.17;;
10705;SDS011;5404;42.656;23.336;2023-03-05T04:57:03;64.13;;;25.83;;
10705;SDS011;5404;42.656;23.336;2023-03-05T04:59:30;56.13;;;23.95;;
10705;SDS011;5404;42.656;23.336;2023-03-05T05:01:55;56.53;;;24.23;;
10705;SDS011;5404;42.656;23.336;2023-03-05T05:04:21;44.40;;;21.20;;
10705;SDS011;5404;42.656;23.336;2023-03-05T05:06:47;59.78;;;23.52;;
10705;SDS011;5404;42.656;23.336;2023-03-05T05:09:12;53.97;;;21.40;;
10705;SDS011;5404;42.656;23.336;2023-03-05T05:11:38;53.97;;;22.83;;
10705;SDS011;5404;42.656;23.336;2023-03-05T05:14:04;47.47;;;20.25;;
10705;SDS011;5404;42.656;23.336;2023-03-05T05:16:31;47.85;;;19.83;;
10705;SDS011;5404;42.656;23.336;2023-03-05T05:18:56;49.17;;;22.73;;
10705;SDS011;5404;42.656;23.336;2023-03-05T05:21:22;47.70;;;19.90;;
10705;SDS011;5404;42.656;23.336;2023-03-05T05:23:48;47.08;;;21.02;;
10705;SDS011;5404;42.656;23.336;2023-03-05T05:26:13;53.80;;;21.27;;
10705;SDS011;5404;42.656;23.336;2023-03-05T05:28:40;55.38;;;22.48;;
10705;SDS011;5404;42.656;23.336;2023-03-05T05:31:11;49.10;;;20.30;;
10705;SDS011;5404;42.656;23.336;2023-03-05T05:33:39;52.50;;;20.17;;
10705;SDS011;5404;42.656;23.336;2023-03-05T05:36:07;42.22;;;19.10;;
10705;SDS011;5404;42.656;23.336;2023-03-05T05:38:34;50.60;;;19.00;;
10705;SDS011;5404;42.656;23.336;2023-03-05T05:41:04;53.45;;;20.27;;
10705;SDS011;5404;42.656;23.336;2023-03-05T05:43:35;47.58;;;19.63;;
10705;SDS011;5404;42.656;23.336;2023-03-05T05:46:02;42.30;;;18.92;;
10705;SDS011;5404;42.656;23.336;2023-03-05T05:48:29;42.33;;;19.17;;
10705;SDS011;5404;42.656;23.336;2023-03-05T05:50:55;41.35;;;17.55;;
10705;SDS011;5404;42.656;23.336;2023-03-05T05:53:21;47.20;;;18.08;;
10705;SDS011;5404;42.656;23.336;2023-03-05T05:55:46;39.08;;;18.42;;
10705;SDS011;5404;42.656;23.336;2023-03-05T05:58:12;32.97;;;16.52;;
10705;SDS011;5404;42.656;23.336;2023-03-05T06:00:37;45.15;;;17.77;;
10705;SDS011;5404;42.656;23.336;2023-03-05T06:03:03;37.47;;;17.65;;
10705;SDS011;5404;42.656;23.336;2023-03-05T06:05:28;44.38;;;16.75;;
10705;SDS011;5404;42.656;23.336;2023-03-05T06:07:54;44.15;;;16.35;;
10705;SDS011;5404;42.656;23.336;2023-03-05T06:10:19;37.30;;;18.30;;
10705;SDS011;5404;42.656;23.336;2023-03-05T06:12:45;37.38;;;16.50;;
10705;SDS011;5404;42.656;23.336;2023-03-05T06:15:10;56.33;;;16.15;;
10705;SDS011;5404;42.656;23.336;2023-03-05T06:17:36;39.42;;;16.13;;
10705;SDS011;5404;42.656;23.336;2023-03-05T06:20:01;43.60;;;15.93;;
10705;SDS011;5404;42.656;23.336;2023-03-05T06:22:28;36.92;;;15.55;;
10705;SDS011;5404;42.656;23.336;2023-03-05T06:24:54;40.83;;;17.42;;
10705;SDS011;5404;42.656;23.336;2023-03-05T06:27:19;34.58;;;15.30;;
10705;SDS011;5404;42.656;23.336;2023-03-05T06:29:44;37.20;;;15.63;;
10705;SDS011;5404;42.656;23.336;2023-03-05T06:32:10;34.65;;;15.43;;
10705;SDS011;5404;42.656;23.336;2023-03-05T06:34:35;23.23;;;10.60;;
10705;SDS011;5404;42.656;23.336;2023-03-05T06:37:01;33.60;;;14.45;;
10705;SDS011;5404;42.656;23.336;2023-03-05T06:39:27;34.53;;;14.98;;
10705;SDS011;5404;42.656;23.336;2023-03-05T06:41:54;39.20;;;16.17;;
10705;SDS011;5404;42.656;23.336;2023-03-05T06:44:19;41.22;;;15.25;;
10705;SDS011;5404;42.656;23.336;2023-03-05T06:46:45;35.03;;;15.93;;
10705;SDS011;5404;42.656;23.336;2023-03-05T06:49:10;42.13;;;15.30;;
10705;SDS011;5404;42.656;23.336;2023-03-05T06:51:37;34.55;;;16.25;;
10705;SDS011;5404;42.656;23.336;2023-03-05T06:54:07;26.92;;;11.88;;
10705;SDS011;5404;42.656;23.336;2023-03-05T06:56:35;34.08;;;14.82;;
10705;SDS011;5404;42.656;23.336;2023-03-05T06:59:02;31.52;;;14.10;;
10705;SDS011;5404;42.656;23.336;2023-03-05T07:01:28;34.40;;;15.48;;
10705;SDS011;5404;42.656;23.336;2023-03-05T07:03:54;35.05;;;14.55;;
10705;SDS011;5404;42.656;23.336;2023-03-05T07:06:24;33.03;;;15.52;;
10705;SDS011;5404;42.656;23.336;2023-03-05T07:08:54;37.65;;;14.75;;
10705;SDS011;5404;42.656;23.336;2023-03-05T07:11:20;35.70;;;17.30;;
10705;SDS011;5404;42.656;23.336;2023-03-05T07:13:47;37.40;;;17.30;;
10705;SDS011;5404;42.656;23.336;2023-03-05T07:16:22;35.20;;;15.68;;
10705;SDS011;5404;42.656;23.336;2023-03-05T07:18:50;40.65;;;18.27;;
10705;SDS011;5404;42.656;23.336;2023-03-05T07:21:17;40.85;;;17.98;;
10705;SDS011;5404;42.656;23.336;2023-03-05T07:23:45;42.03;;;18.30;;
10705;SDS011;5404;42.656;23.336;2023-03-05T07:26:11;40.28;;;13.20;;
10705;SDS011;5404;42.656;23.336;2023-03-05T07:28:37;45.70;;;17.45;;
10705;SDS011;5404;42.656;23.336;2023-03-05T07:31:04;40.65;;;18.08;;
10705;SDS011;5404;42.656;23.336;2023-03-05T07:33:32;43.08;;;19.20;;
10705;SDS011;5404;42.656;23.336;2023-03-05T07:35:59;43.45;;;17.98;;
10705;SDS011;5404;42.656;23.336;2023-03-05T07:38:25;46.97;;;20.08;;
10705;SDS011;5404;42.656;23.336;2023-03-05T07:40:51;46.63;;;19.10;;
10705;SDS011;5404;42.656;23.336;2023-03-05T07:43:17;55.45;;;21.48;;
10705;SDS011;5404;42.656;23.336;2023-03-05T07:45:43;49.95;;;20.67;;
10705;SDS011;5404;42.656;23.336;2023-03-05T07:48:13;46.92;;;18.83;;
10705;SDS011;5404;42.656;23.336;2023-03-05T07:50:40;48.53;;;16.90;;
10705;SDS011;5404;42.656;23.336;2023-03-05T07:53:06;46.45;;;22.20;;
10705;SDS011;5404;42.656;23.336;2023-03-05T07:55:32;46.33;;;20.50;;
10705;SDS011;5404;42.656;23.336;2023-03-05T07:58:01;51.60;;;20.33;;
10705;SDS011;5404;42.656;23.336;2023-03-05T08:00:26;56.72;;;21.65;;
10705;SDS011;5404;42.656;23.336;2023-03-05T08:02:51;51.22;;;21.45;;
10705;SDS011;5404;42.656;23.336;2023-03-05T08:05:17;45.03;;;21.48;;
10705;SDS011;5404;42.656;23.336;2023-03-05T08:07:44;53.72;;;21.80;;
10705;SDS011;5404;42.656;23.336;2023-03-05T08:10:10;56.35;;;23.55;;
10705;SDS011;5404;42.656;23.336;2023-03-05T08:12:37;48.92;;;24.17;;
10705;SDS011;5404;42.656;23.336;2023-03-05T08:15:02;48.85;;;21.90;;
10705;SDS011;5404;42.656;23.336;2023-03-05T08:17:30;54.85;;;22.27;;
10705;SDS011;5404;42.656;23.336;2023-03-05T08:19:55;54.92;;;22.52;;
10705;SDS011;5404;42.656;23.336;2023-03-05T08:22:24;50.00;;;21.42;;
10705;SDS011;5404;42.656;23.336;2023-03-05T08:24:51;47.55;;;22.88;;
10705;SDS011;5404;42.656;23.336;2023-03-05T08:27:17;54.08;;;22.75;;
10705;SDS011;5404;42.656;23.336;2023-03-05T08:29:42;52.35;;;21.58;;
10705;SDS011;5404;42.656;23.336;2023-03-05T08:32:08;51.95;;;23.75;;
10705;SDS011;5404;42.656;23.336;2023-03-05T08:34:33;48.85;;;20.33;;
10705;SDS011;5404;42.656;23.336;2023-03-05T08:36:59;45.45;;;21.73;;
10705;SDS011;5404;42.656;23.336;2023-03-05T08:39:24;50.13;;;23.45;;
10705;SDS011;5404;42.656;23.336;2023-03-05T08:41:50;50.55;;;19.90;;
10705;SDS011;5404;42.656;23.336;2023-03-05T08:44:16;46.45;;;20.67;;
10705;SDS011;5404;42.656;23.336;2023-03-05T08:46:41;51.60;;;23.02;;
10705;SDS011;5404;42.656;23.336;2023-03-05T08:49:07;41.95;;;19.92;;
10705;SDS011;5404;42.656;23.336;2023-03-05T08:51:33;50.30;;;20.75;;
10705;SDS011;5404;42.656;23.336;2023-03-05T08:54:00;52.25;;;20.30;;
10705;SDS011;5404;42.656;23.336;2023-03-05T08:56:26;47.75;;;21.80;;
10705;SDS011;5404;42.656;23.336;2023-03-05T08:58:55;48.65;;;19.77;;
10705;SDS011;5404;42.656;23.336;2023-03-05T09:01:20;49.63;;;21.65;;
10705;SDS011;5404;42.656;23.336;2023-03-05T09:03:47;43.25;;;21.08;;
10705;SDS011;5404;42.656;23.336;2023-03-05T09:06:13;63.53;;;22.42;;
10705;SDS011;5404;42.656;23.336;2023-03-05T09:08:40;46.95;;;20.45;;
10705;SDS011;5404;42.656;23.336;2023-03-05T09:11:06;41.10;;;18.08;;
10705;SDS011;5404;42.656;23.336;2023-03-05T09:13:34;43.17;;;20.77;;
10705;SDS011;5404;42.656;23.336;2023-03-05T09:16:04;44.35;;;21.83;;
10705;SDS011;5404;42.656;23.336;2023-03-05T09:18:33;50.15;;;21.42;;
10705;SDS011;5404;42.656;23.336;2023-03-05T09:21:04;37.83;;;17.98;;
10705;SDS011;5404;42.656;23.336;2023-03-05T09:23:37;44.13;;;21.08;;
10705;SDS011;5404;42.656;23.336;2023-03-05T09:26:07;45.83;;;20.92;;
10705;SDS011;5404;42.656;23.336;2023-03-05T09:28:33;42.45;;;19.52;;
10705;SDS011;5404;42.656;23.336;2023-03-05T09:31:05;42.22;;;20.38;;
10705;SDS011;5404;42.656;23.336;2023-03-05T09:33:33;37.70;;;18.85;;
10705;SDS011;5404;42.656;23.336;2023-03-05T09:36:00;43.42;;;19.73;;
10705;SDS011;5404;42.656;23.336;2023-03-05T09:38:27;42.20;;;18.80;;
10705;SDS011;5404;42.656;23.336;2023-03-05T09:48:51;39.03;;;19.98;;
10705;SDS011;5404;42.656;23.336;2023-03-05T09:51:24;38.83;;;18.15;;
10705;SDS011;5404;42.656;23.336;2023-03-05T09:56:29;36.97;;;19.48;;
10705;SDS011;5404;42.656;23.336;2023-03-05T09:59:16;35.75;;;18.40;;
10705;SDS011;5404;42.656;23.336;2023-03-05T10:01:44;32.38;;;15.77;;
10705;SDS011;5404;42.656;23.336;2023-03-05T10:04:45;33.75;;;17.98;;
10705;SDS011;5404;42.656;23.336;2023-03-05T10:07:40;36.00;;;17.95;;
10705;SDS011;5404;42.656;23.336;2023-03-05T10:13:11;36.38;;;16.73;;
10705;SDS011;5404;42.656;23.336;2023-03-05T10:21:27;37.50;;;18.23;;
10705;SDS011;5404;42.656;23.336;2023-03-05T10:24:02;34.47;;;17.30;;
10705;SDS011;5404;42.656;23.336;2023-03-05T10:37:39;34.08;;;18.63;;
10705;SDS011;5404;42.656;23.336;2023-03-05T10:40:24;30.13;;;16.35;;
10705;SDS011;5404;42.656;23.336;2023-03-05T10:45:37;24.95;;;14.75;;
10705;SDS011;5404;42.656;23.336;2023-03-05T10:50:39;31.48;;;14.38;;
10705;SDS011;5404;42.656;23.336;2023-03-05T10:55:34;30.13;;;15.43;;
10705;SDS011;5404;42.656;23.336;2023-03-05T10:58:00;33.28;;;15.45;;
10705;SDS011;5404;42.656;23.336;2023-03-05T11:00:34;33.70;;;15.57;;
10705;SDS011;5404;42.656;23.336;2023-03-05T11:03:02;30.77;;;15.50;;
10705;SDS011;5404;42.656;23.336;2023-03-05T11:05:35;34.72;;;17.60;;
10705;SDS011;5404;42.656;23.336;2023-03-05T11:08:51;25.38;;;13.40;;
10705;SDS011;5404;42.656;23.336;2023-03-05T11:13:35;31.27;;;14.48;;
10705;SDS011;5404;42.656;23.336;2023-03-05T11:16:06;30.55;;;14.25;;
10705;SDS011;5404;42.656;23.336;2023-03-05T11:18:41;27.45;;;13.68;;
10705;SDS011;5404;42.656;23.336;2023-03-05T11:21:11;24.00;;;13.60;;
10705;SDS011;5404;42.656;23.336;2023-03-05T11:23:43;25.05;;;13.10;;
10705;SDS011;5404;42.656;23.336;2023-03-05T11:26:28;30.85;;;14.50;;
10705;SDS011;5404;42.656;23.336;2023-03-05T11:28:58;26.85;;;14.68;;
10705;SDS011;5404;42.656;23.336;2023-03-05T11:31:28;27.75;;;14.23;;
10705;SDS011;5404;42.656;23.336;2023-03-05T11:36:33;28.83;;;14.52;;
10705;SDS011;5404;42.656;23.336;2023-03-05T11:41:33;27.40;;;13.50;;
10705;SDS011;5404;42.656;23.336;2023-03-05T11:44:13;26.52;;;13.57;;
10705;SDS011;5404;42.656;23.336;2023-03-05T11:46:45;26.88;;;13.95;;
10705;SDS011;5404;42.656;23.336;2023-03-05T11:49:20;31.92;;;15.15;;
10705;SDS011;5404;42.656;23.336;2023-03-05T11:57:26;29.23;;;16.27;;
10705;SDS011;5404;42.656;23.336;2023-03-05T11:59:57;30.05;;;16.73;;
10705;SDS011;5404;42.656;23.336;2023-03-05T12:02:24;29.95;;;14.68;;
10705;SDS011;5404;42.656;23.336;2023-03-05T12:04:51;28.88;;;14.63;;
10705;SDS011;5404;42.656;23.336;2023-03-05T12:07:22;41.65;;;22.10;;
10705;SDS011;5404;42.656;23.336;2023-03-05T12:09:58;30.23;;;15.10;;
10705;SDS011;5404;42.656;23.336;2023-03-05T12:18:11;28.45;;;14.32;;
10705;SDS011;5404;42.656;23.336;2023-03-05T12:23:54;20.23;;;11.23;;
10705;SDS011;5404;42.656;23.336;2023-03-05T12:26:18;28.33;;;13.27;;
10705;SDS011;5404;42.656;23.336;2023-03-05T12:34:55;25.95;;;14.55;;
10705;SDS011;5404;42.656;23.336;2023-03-05T13:01:03;29.30;;;13.73;;
10705;SDS011;5404;42.656;23.336;2023-03-05T13:03:53;26.08;;;12.98;;
10705;SDS011;5404;42.656;23.336;2023-03-05T13:06:29;28.90;;;11.23;;
10705;SDS011;5404;42.656;23.336;2023-03-05T13:09:02;24.52;;;10.65;;
10705;SDS011;5404;42.656;23.336;2023-03-05T13:11:49;26.30;;;13.27;;
10705;SDS011;5404;42.656;23.336;2023-03-05T13:14:31;29.40;;;13.23;;
10705;SDS011;5404;42.656;23.336;2023-03-05T13:19:51;27.55;;;13.35;;
10705;SDS011;5404;42.656;23.336;2023-03-05T13:22:17;30.17;;;13.27;;
10705;SDS011;5404;42.656;23.336;2023-03-05T13:24:43;23.70;;;12.27;;
10705;SDS011;5404;42.656;23.336;2023-03-05T13:27:30;28.73;;;13.48;;
10705;SDS011;5404;42.656;23.336;2023-03-05T13:29:57;36.88;;;20.33;;
10705;SDS011;5404;42.656;23.336;2023-03-05T13:32:25;26.23;;;13.60;;
10705;SDS011;5404;42.656;23.336;2023-03-05T13:34:54;26.42;;;14.10;;
10705;SDS011;5404;42.656;23.336;2023-03-05T13:40:16;28.65;;;13.75;;
10705;SDS011;5404;42.656;23.336;2023-03-05T13:42:47;28.92;;;13.85;;
10705;SDS011;5404;42.656;23.336;2023-03-05T13:45:25;28.23;;;14.32;;
10705;SDS011;5404;42.656;23.336;2023-03-05T13:47:59;25.25;;;12.65;;
10705;SDS011;5404;42.656;23.336;2023-03-05T13:50:27;27.83;;;14.40;;
10705;SDS011;5404;42.656;23.336;2023-03-05T13:52:53;30.45;;;13.65;;
10705;SDS011;5404;42.656;23.336;2023-03-05T13:55:25;27.55;;;13.40;;
10705;SDS011;5404;42.656;23.336;2023-03-05T13:57:51;28.73;;;14.45;;
10705;SDS011;5404;42.656;23.336;2023-03-05T14:03:20;31.83;;;13.30;;
10705;SDS011;5404;42.656;23.336;2023-03-05T14:05:48;38.45;;;14.88;;
10705;SDS011;5404;42.656;23.336;2023-03-05T14:08:23;29.15;;;13.57;;
10705;SDS011;5404;42.656;23.336;2023-03-05T14:10:51;31.20;;;14.73;;
10705;SDS011;5404;42.656;23.336;2023-03-05T14:13:19;28.70;;;14.38;;
10705;SDS011;5404;42.656;23.336;2023-03-05T14:18:33;30.95;;;14.85;;
10705;SDS011;5404;42.656;23.336;2023-03-05T14:21:06;31.83;;;15.07;;
10705;SDS011;5404;42.656;23.336;2023-03-05T14:23:45;32.70;;;15.30;;
10705;SDS011;5404;42.656;23.336;2023-03-05T14:26:17;33.13;;;15.65;;
10705;SDS011;5404;42.656;23.336;2023-03-05T14:28:50;33.15;;;15.15;;
10705;SDS011;5404;42.656;23.336;2023-03-05T14:31:27;33.15;;;16.00;;
10705;SDS011;5404;42.656;23.336;2023-03-05T14:33:59;28.40;;;13.75;;
10705;SDS011;5404;42.656;23.336;2023-03-05T14:36:29;35.85;;;15.68;;
10705;SDS011;5404;42.656;23.336;2023-03-05T14:38:55;28.23;;;15.30;;
10705;SDS011;5404;42.656;23.336;2023-03-05T14:41:30;28.80;;;14.57;;
10705;SDS011;5404;42.656;23.336;2023-03-05T14:43:59;23.17;;;11.98;;
10705;SDS011;5404;42.656;23.336;2023-03-05T14:46:25;27.10;;;13.48;;
10705;SDS011;5404;42.656;23.336;2023-03-05T14:48:51;36.00;;;16.10;;
10705;SDS011;5404;42.656;23.336;2023-03-05T14:51:16;35.25;;;15.43;;
10705;SDS011;5404;42.656;23.336;2023-03-05T14:53:46;36.90;;;16.90;;
10705;SDS011;5404;42.656;23.336;2023-03-05T14:56:21;39.15;;;18.60;;
10705;SDS011;5404;42.656;23.336;2023-03-05T14:58:48;41.63;;;16.58;;
10705;SDS011;5404;42.656;23.336;2023-03-05T15:01:17;33.58;;;15.80;;
10705;SDS011;5404;42.656;23.336;2023-03-05T15:03:43;32.17;;;14.88;;
10705;SDS011;5404;42.656;23.336;2023-03-05T15:06:19;34.35;;;14.63;;
10705;SDS011;5404;42.656;23.336;2023-03-05T15:08:48;35.47;;;15.05;;
10705;SDS011;5404;42.656;23.336;2023-03-05T15:11:14;29.70;;;14.60;;
10705;SDS011;5404;42.656;23.336;2023-03-05T15:13:39;33.33;;;15.20;;
10705;SDS011;5404;42.656;23.336;2023-03-05T15:16:05;29.35;;;15.82;;
10705;SDS011;5404;42.656;23.336;2023-03-05T15:18:31;39.15;;;18.98;;
10705;SDS011;5404;42.656;23.336;2023-03-05T15:20:57;36.15;;;17.63;;
10705;SDS011;5404;42.656;23.336;2023-03-05T15:23:23;32.83;;;16.20;;
10705;SDS011;5404;42.656;23.336;2023-03-05T15:25:48;41.63;;;17.75;;
10705;SDS011;5404;42.656;23.336;2023-03-05T15:28:15;45.65;;;18.95;;
10705;SDS011;5404;42.656;23.336;2023-03-05T15:30:43;50.35;;;22.17;;
10705;SDS011;5404;42.656;23.336;2023-03-05T15:33:12;36.92;;;17.65;;
10705;SDS011;5404;42.656;23.336;2023-03-05T15:35:39;41.55;;;16.65;;
10705;SDS011;5404;42.656;23.336;2023-03-05T15:38:05;31.80;;;15.05;;
10705;SDS011;5404;42.656;23.336;2023-03-05T15:40:30;34.45;;;15.95;;
10705;SDS011;5404;42.656;23.336;2023-03-05T15:42:56;28.33;;;15.10;;
10705;SDS011;5404;42.656;23.336;2023-03-05T15:45:23;36.05;;;16.17;;
10705;SDS011;5404;42.656;23.336;2023-03-05T15:47:49;32.60;;;14.88;;
10705;SDS011;5404;42.656;23.336;2023-03-05T15:50:16;32.22;;;15.52;;
10705;SDS011;5404;42.656;23.336;2023-03-05T15:52:43;31.02;;;14.65;;
10705;SDS011;5404;42.656;23.336;2023-03-05T15:55:08;29.35;;;14.98;;
10705;SDS011;5404;42.656;23.336;2023-03-05T15:57:35;34.03;;;15.45;;
10705;SDS011;5404;42.656;23.336;2023-03-05T16:00:05;32.60;;;15.10;;
10705;SDS011;5404;42.656;23.336;2023-03-05T16:02:32;29.77;;;14.73;;
10705;SDS011;5404;42.656;23.336;2023-03-05T16:04:57;32.95;;;14.02;;
10705;SDS011;5404;42.656;23.336;2023-03-05T16:07:23;33.15;;;14.20;;
10705;SDS011;5404;42.656;23.336;2023-03-05T16:09:49;35.83;;;16.52;;
10705;SDS011;5404;42.656;23.336;2023-03-05T16:12:17;28.08;;;15.55;;